Time;durP1;ratioP1;P1;durP2;ratioP2;P2;SDS_P1;SDS_P2;PMS_P1;PMS_P2;Temp;Humidity;BMP_temperature;BMP_pressure;BME280_temperature;BME280_humidity;BME280_pressure;Samples;Min_cycle;Max_cycle;Signal;HPM_P1;HPM_P2
2023/01/20 00:00:36;;;;;;;24.73;14.67;;;;;;;3.37;81.09;99273.97;5043955;28;20298;-79
2023/01/20 00:03:02;;;;;;;23.52;12.93;;;;;;;3.41;81.08;99268.94;5043907;28;20762;-79
2023/01/20 00:05:27;;;;;;;24.50;13.70;;;;;;;3.45;80.73;99276.34;5043881;28;20102;-79
2023/01/20 00:07:52;;;;;;;25.17;13.73;;;;;;;3.46;80.95;99271.75;5043144;28;20389;-80
2023/01/20 00:10:18;;;;;;;23.60;14.25;;;;;;;3.52;80.76;99275.44;5043585;28;20036;-80
2023/01/20 00:12:43;;;;;;;28.70;13.48;;;;;;;3.32;80.31;99271.97;5043830;28;20033;-79
2023/01/20 00:15:09;;;;;;;25.65;13.48;;;;;;;2.90;81.49;99273.53;5043437;28;20075;-79
2023/01/20 00:17:34;;;;;;;24.58;14.05;;;;;;;2.90;82.47;99278.94;5043259;28;20346;-79
2023/01/20 00:20:00;;;;;;;27.85;13.95;;;;;;;2.94;82.13;99281.16;5043023;28;20032;-80
2023/01/20 00:22:25;;;;;;;28.02;16.67;;;;;;;2.80;82.59;99271.38;5043345;28;20516;-79
2023/01/20 00:24:50;;;;;;;24.90;13.00;;;;;;;2.95;82.34;99278.22;5043293;28;20043;-80
2023/01/20 00:27:15;;;;;;;27.50;16.15;;;;;;;2.96;81.91;99282.59;5042436;28;20099;-79
2023/01/20 00:29:43;;;;;;;29.52;16.40;;;;;;;2.80;82.03;99275.94;5043117;28;20394;-79
2023/01/20 00:32:11;;;;;;;30.52;16.85;;;;;;;2.95;82.31;99275.53;5043425;28;20060;-78
2023/01/20 00:34:37;;;;;;;28.83;14.27;;;;;;;2.80;82.19;99289.41;5043309;28;20118;-79
2023/01/20 00:37:02;;;;;;;28.77;16.65;;;;;;;3.02;81.89;99288.94;5043329;28;20715;-79
2023/01/20 00:39:27;;;;;;;37.15;16.85;;;;;;;3.14;81.64;99289.00;5042655;28;20033;-79
2023/01/20 00:41:53;;;;;;;27.90;15.60;;;;;;;2.96;81.40;99285.28;5042227;28;20041;-79
2023/01/20 00:44:18;;;;;;;26.77;16.25;;;;;;;2.93;81.08;99285.72;5042772;28;20735;-80
2023/01/20 00:46:43;;;;;;;37.38;17.08;;;;;;;2.65;81.67;99295.97;5043012;28;20053;-79
2023/01/20 00:49:09;;;;;;;30.25;16.75;;;;;;;2.62;82.74;99291.06;5042674;28;20067;-79
2023/01/20 00:51:34;;;;;;;35.63;17.83;;;;;;;2.58;82.94;99303.31;5042959;28;20036;-78
2023/01/20 00:54:00;;;;;;;35.72;19.02;;;;;;;2.83;82.97;99304.28;5043040;28;20079;-79
2023/01/20 00:56:25;;;;;;;32.45;19.27;;;;;;;2.64;82.37;99301.59;5043184;28;20086;-79
2023/01/20 00:58:50;;;;;;;32.37;20.10;;;;;;;2.84;82.19;99304.06;5042440;28;20037;-79
2023/01/20 01:01:15;;;;;;;34.27;17.47;;;;;;;2.84;82.35;99309.44;5043263;28;20289;-79
2023/01/20 01:03:41;;;;;;;31.27;19.83;;;;;;;2.84;81.82;99304.06;5043071;28;21177;-77
2023/01/20 01:06:12;;;;;;;27.13;16.30;;;;;;;2.76;81.91;99307.88;5042712;28;20040;-78
2023/01/20 01:08:38;;;;;;;34.25;17.48;;;;;;;2.47;83.27;99315.63;5042938;28;20039;-79
2023/01/20 01:11:05;;;;;;;26.60;16.10;;;;;;;2.67;83.59;99314.59;5042231;28;20037;-79
2023/01/20 01:13:31;;;;;;;35.47;19.17;;;;;;;2.72;82.61;99305.84;5041345;28;20433;-78
2023/01/20 01:15:56;;;;;;;26.83;16.33;;;;;;;2.59;84.09;99318.41;5042898;28;20850;-78
2023/01/20 01:18:22;;;;;;;29.95;16.98;;;;;;;2.60;83.41;99320.06;5041998;28;20118;-78
2023/01/20 01:20:47;;;;;;;29.77;16.75;;;;;;;2.64;83.92;99318.56;5042717;28;20056;-79
2023/01/20 01:23:12;;;;;;;32.97;16.90;;;;;;;2.76;83.10;99328.59;5042443;28;20037;-79
2023/01/20 01:25:38;;;;;;;33.80;20.77;;;;;;;2.48;82.44;99338.81;5041796;28;20061;-78
2023/01/20 01:28:03;;;;;;;37.30;19.88;;;;;;;2.60;83.31;99330.84;5042151;28;20041;-78
2023/01/20 01:30:28;;;;;;;31.92;18.65;;;;;;;2.71;82.57;99339.19;5042623;28;20039;-79
2023/01/20 01:32:54;;;;;;;40.47;21.83;;;;;;;2.76;82.21;99344.75;5042023;28;20063;-79
2023/01/20 01:35:19;;;;;;;40.97;20.85;;;;;;;2.54;82.52;99343.28;5042257;28;20265;-80
2023/01/20 01:37:44;;;;;;;37.15;20.52;;;;;;;2.63;82.95;99345.69;5042034;28;20037;-79
2023/01/20 01:40:10;;;;;;;33.35;21.60;;;;;;;2.74;82.81;99342.28;5042478;28;20359;-80
2023/01/20 01:42:35;;;;;;;31.77;22.85;;;;;;;2.80;82.70;99345.94;5041934;28;20037;-79
2023/01/20 01:45:18;;;;;;;35.13;18.92;;;;;;;2.96;81.43;99341.00;5042177;28;20049;-79
2023/01/20 01:47:56;;;;;;;38.15;21.45;;;;;;;2.88;81.79;99353.72;5041653;28;20025;-78
2023/01/20 01:50:31;;;;;;;28.10;16.60;;;;;;;3.01;81.62;99341.16;5042437;28;20052;-78
2023/01/20 01:52:57;;;;;;;31.33;17.92;;;;;;;3.12;81.18;99343.09;5045504;28;20029;-79
2023/01/20 01:55:28;;;;;;;36.50;18.52;;;;;;;3.11;80.95;99341.44;5046092;28;20099;-78
2023/01/20 01:57:54;;;;;;;37.40;17.00;;;;;;;3.20;80.67;99346.53;5045660;28;20037;-78
2023/01/20 02:00:20;;;;;;;40.25;17.63;;;;;;;2.90;80.17;99346.25;5046404;28;20075;-79
2023/01/20 02:02:45;;;;;;;25.83;15.27;;;;;;;3.02;80.83;99353.56;5046017;28;20654;-79
2023/01/20 02:05:13;;;;;;;28.38;16.13;;;;;;;3.17;81.14;99360.47;5045785;28;20043;-78
2023/01/20 02:07:39;;;;;;;25.42;13.45;;;;;;;3.12;80.19;99353.88;5045468;28;20143;-79
2023/01/20 02:10:04;;;;;;;33.17;14.70;;;;;;;3.10;80.53;99350.59;5044496;28;20150;-79
2023/01/20 02:12:30;;;;;;;35.20;18.13;;;;;;;3.22;80.36;99353.34;5045386;28;20036;-78
2023/01/20 02:14:58;;;;;;;25.48;14.68;;;;;;;3.33;80.34;99354.47;5045134;28;20037;-79
2023/01/20 02:18:05;;;;;;;28.65;15.13;;;;;;;3.33;80.19;99359.03;5045321;28;20409;-79
2023/01/20 02:20:41;;;;;;;31.05;16.90;;;;;;;3.07;80.94;99359.09;5045036;28;20041;-79
2023/01/20 02:23:18;;;;;;;34.17;17.58;;;;;;;2.84;81.25;99363.31;5045546;28;20035;-79
2023/01/20 02:26:06;;;;;;;37.05;18.17;;;;;;;2.57;82.83;99363.56;5045221;28;20037;-79
2023/01/20 02:28:57;;;;;;;25.88;15.85;;;;;;;2.83;82.35;99367.03;5033247;28;20128;-79
2023/01/20 02:31:43;;;;;;;29.88;17.67;;;;;;;2.60;82.44;99368.50;5045259;28;20032;-79
2023/01/20 02:34:16;;;;;;;38.33;20.75;;;;;;;2.84;82.21;99371.38;5045433;28;20795;-79
2023/01/20 02:36:53;;;;;;;28.10;16.02;;;;;;;2.91;81.87;99374.81;5045684;28;20045;-78
2023/01/20 02:39:30;;;;;;;31.17;16.15;;;;;;;3.01;81.31;99373.50;5044700;28;20131;-79
2023/01/20 02:42:08;;;;;;;27.40;14.82;;;;;;;3.13;80.93;99371.66;5045100;28;20039;-79
2023/01/20 02:44:45;;;;;;;31.33;17.48;;;;;;;3.11;80.76;99370.28;5045449;28;20424;-79
2023/01/20 02:47:16;;;;;;;35.53;17.55;;;;;;;3.15;81.02;99374.97;5044842;28;20056;-78
2023/01/20 02:49:54;;;;;;;29.02;16.83;;;;;;;3.02;80.22;99384.03;5045540;28;20525;-78
2023/01/20 02:52:25;;;;;;;32.88;17.65;;;;;;;3.08;80.84;99376.09;5045229;28;20116;-78
2023/01/20 02:54:53;;;;;;;37.20;17.67;;;;;;;3.22;80.73;99376.75;5044971;28;20436;-78
2023/01/20 02:57:25;;;;;;;36.35;19.48;;;;;;;3.25;80.28;99373.63;5044668;28;20039;-79
2023/01/20 02:59:55;;;;;;;26.98;14.23;;;;;;;3.37;80.18;99377.22;5044960;28;20029;-79
2023/01/20 03:02:24;;;;;;;28.70;16.23;;;;;;;3.26;78.89;99372.56;5044995;28;20040;-80
2023/01/20 03:04:57;;;;;;;40.08;19.15;;;;;;;3.19;79.40;99390.69;5044230;28;20470;-78
2023/01/20 03:07:26;;;;;;;30.00;16.65;;;;;;;3.25;80.18;99389.81;5044359;28;20087;-79
2023/01/20 03:09:57;;;;;;;29.50;16.25;;;;;;;3.23;79.96;99391.91;5044699;28;20040;-79
2023/01/20 03:12:45;;;;;;;25.10;15.68;;;;;;;3.24;79.82;99401.59;5044692;28;20406;-79
2023/01/20 03:15:11;;;;;;;24.95;14.43;;;;;;;3.09;79.81;99397.41;5044601;28;20122;-80
2023/01/20 03:17:37;;;;;;;28.15;15.50;;;;;;;3.03;80.00;99399.13;5044481;28;20086;-78
2023/01/20 03:20:03;;;;;;;29.45;15.25;;;;;;;3.11;80.16;99400.72;5044749;28;20029;-79
2023/01/20 03:22:29;;;;;;;29.85;17.15;;;;;;;3.19;80.04;99405.00;5044620;28;20690;-79
2023/01/20 03:24:57;;;;;;;26.45;15.90;;;;;;;3.03;80.04;99409.13;5044113;28;20032;-79
2023/01/20 03:27:23;;;;;;;31.02;15.73;;;;;;;3.07;80.34;99410.28;5043758;28;20036;-79
2023/01/20 03:29:48;;;;;;;28.55;15.88;;;;;;;3.19;80.15;99414.94;5044111;28;21077;-78
2023/01/20 03:32:14;;;;;;;34.43;19.53;;;;;;;3.22;80.04;99406.41;5044560;28;20116;-79
2023/01/20 03:34:41;;;;;;;28.75;15.57;;;;;;;3.25;79.73;99416.75;5044228;28;20262;-78
2023/01/20 03:37:09;;;;;;;26.85;15.63;;;;;;;3.09;79.56;99416.28;5044320;28;20035;-79
2023/01/20 03:39:38;;;;;;;28.13;15.82;;;;;;;3.02;80.09;99413.66;5043571;28;20043;-78
2023/01/20 03:42:51;;;;;;;28.33;16.80;;;;;;;2.87;80.19;99411.31;5043926;28;20043;-79
2023/01/20 03:45:28;;;;;;;30.50;17.35;;;;;;;2.73;81.08;99413.31;5040754;28;20045;-79
2023/01/20 03:48:15;;;;;;;29.33;17.27;;;;;;;2.82;80.80;99408.47;5042853;28;20053;-80
2023/01/20 03:51:33;;;;;;;28.70;16.85;;;;;;;2.91;80.55;99422.47;5042329;28;20039;-79
2023/01/20 03:54:02;;;;;;;29.55;16.00;;;;;;;2.73;81.11;99413.31;5020854;28;20621;-79
2023/01/20 03:56:36;;;;;;;32.63;19.80;;;;;;;2.81;81.50;99425.66;5020544;28;20458;-79
2023/01/20 03:59:03;;;;;;;26.30;17.13;;;;;;;2.95;80.92;99423.66;5032639;28;20659;-78
2023/01/20 04:01:34;;;;;;;32.92;17.58;;;;;;;2.91;80.45;99422.47;5042551;28;20359;-79
2023/01/20 04:04:03;;;;;;;37.25;18.15;;;;;;;2.98;80.19;99430.50;5043748;28;20857;-79
2023/01/20 04:06:29;;;;;;;33.20;17.02;;;;;;;3.04;80.31;99418.81;5043954;28;20370;-79
2023/01/20 04:08:59;;;;;;;32.22;17.67;;;;;;;3.10;79.89;99433.25;5043213;28;20044;-80
2023/01/20 04:11:26;;;;;;;37.25;20.25;;;;;;;3.14;79.58;99431.78;5043648;28;20152;-80
2023/01/20 04:13:51;;;;;;;26.00;16.83;;;;;;;3.17;80.02;99434.03;5043002;28;20425;-80
2023/01/20 04:16:18;;;;;;;27.80;17.33;;;;;;;3.23;78.96;99445.78;5042763;28;20195;-79
2023/01/20 04:18:49;;;;;;;25.13;15.35;;;;;;;3.28;79.86;99443.22;5042673;28;20634;-79
2023/01/20 04:21:37;;;;;;;23.67;12.93;;;;;;;3.11;79.77;99438.41;5043526;28;20039;-80
2023/01/20 04:24:10;;;;;;;34.70;17.33;;;;;;;3.21;79.49;99443.31;5043340;28;20052;-79
2023/01/20 04:26:35;;;;;;;30.13;16.30;;;;;;;3.29;79.54;99444.91;5043239;28;20025;-79
2023/01/20 04:29:07;;;;;;;25.37;13.33;;;;;;;3.21;78.71;99447.88;5043231;28;20403;-79
2023/01/20 04:31:33;;;;;;;23.75;12.75;;;;;;;3.07;79.05;99448.00;5043448;28;20258;-80
2023/01/20 04:33:58;;;;;;;28.35;14.85;;;;;;;3.11;79.16;99449.19;5041807;28;20125;-80
2023/01/20 04:36:24;;;;;;;21.97;13.50;;;;;;;3.13;78.89;99454.38;5043302;28;20104;-79
2023/01/20 04:38:49;;;;;;;23.65;14.27;;;;;;;3.23;78.57;99456.56;5042433;28;20273;-79
2023/01/20 04:41:14;;;;;;;22.47;12.83;;;;;;;3.26;78.52;99464.19;5043280;28;20065;-79
2023/01/20 04:43:43;;;;;;;25.52;13.15;;;;;;;3.23;78.58;99460.09;5043088;28;20257;-78
2023/01/20 04:46:10;;;;;;;21.42;13.40;;;;;;;3.22;79.06;99462.97;5042754;28;20122;-79
2023/01/20 04:48:36;;;;;;;31.50;17.52;;;;;;;2.96;79.42;99456.81;5042851;28;20082;-79
2023/01/20 04:51:05;;;;;;;31.02;17.25;;;;;;;3.01;79.48;99465.06;5043117;28;20029;-79
2023/01/20 04:53:30;;;;;;;31.13;17.00;;;;;;;3.00;79.75;99468.81;5043154;28;20029;-79
2023/01/20 04:55:56;;;;;;;23.77;14.35;;;;;;;2.98;80.30;99465.50;5042798;28;20036;-79
2023/01/20 04:58:21;;;;;;;24.88;14.38;;;;;;;3.08;79.50;99471.22;5042612;28;20048;-80
2023/01/20 05:00:46;;;;;;;30.13;13.70;;;;;;;3.09;79.35;99469.34;5042793;28;20033;-80
2023/01/20 05:03:12;;;;;;;28.07;15.97;;;;;;;3.11;79.35;99476.13;5041778;28;20037;-79
2023/01/20 05:05:37;;;;;;;26.00;13.80;;;;;;;3.16;79.20;99478.19;5043111;28;20258;-79
2023/01/20 05:08:03;;;;;;;30.50;15.68;;;;;;;3.09;79.62;99480.13;5042350;28;20036;-79
2023/01/20 05:10:30;;;;;;;31.55;14.55;;;;;;;3.13;79.71;99479.44;5042713;28;20374;-79
2023/01/20 05:12:55;;;;;;;27.50;13.50;;;;;;;3.24;79.44;99485.16;5042880;28;20093;-79
2023/01/20 05:15:20;;;;;;;22.10;13.67;;;;;;;3.25;78.83;99478.72;5042640;28;20032;-80
2023/01/20 05:17:46;;;;;;;29.43;16.07;;;;;;;3.31;78.68;99483.22;5042147;28;20281;-79
2023/01/20 05:20:11;;;;;;;24.97;15.13;;;;;;;3.29;78.08;99477.22;5042791;28;20269;-80
2023/01/20 05:22:36;;;;;;;25.25;11.98;;;;;;;3.31;78.31;99483.22;5043155;28;20258;-79
2023/01/20 05:25:02;;;;;;;18.60;12.50;;;;;;;3.21;78.38;99491.00;5042804;28;20040;-79
2023/01/20 05:27:27;;;;;;;21.73;11.35;;;;;;;3.14;78.46;99481.09;5045150;28;20249;-80
2023/01/20 05:29:52;;;;;;;24.40;14.73;;;;;;;3.20;78.44;99483.94;5046678;28;20120;-80
2023/01/20 05:32:17;;;;;;;21.05;11.63;;;;;;;3.27;78.41;99495.50;5046618;28;20556;-80
2023/01/20 05:34:43;;;;;;;24.63;14.40;;;;;;;3.36;78.29;99493.31;5046595;28;20029;-80
2023/01/20 05:37:08;;;;;;;21.93;12.70;;;;;;;3.35;77.99;99502.47;5046442;28;20258;-80
2023/01/20 05:39:33;;;;;;;24.25;13.05;;;;;;;3.33;78.17;99500.00;5045805;28;20296;-79
2023/01/20 05:42:00;;;;;;;31.08;15.73;;;;;;;3.25;78.10;99498.38;5046119;28;20045;-79
2023/01/20 05:44:25;;;;;;;24.30;13.75;;;;;;;3.29;77.72;99496.09;5046697;28;20547;-79
2023/01/20 05:46:50;;;;;;;22.95;12.32;;;;;;;3.32;77.66;99497.50;5046761;28;20057;-79
2023/01/20 05:49:15;;;;;;;23.80;14.38;;;;;;;3.29;78.18;99506.03;5044505;28;20036;-79
2023/01/20 05:51:41;;;;;;;25.33;15.17;;;;;;;3.32;78.07;99508.28;5046116;28;20025;-79
2023/01/20 05:54:06;;;;;;;22.50;13.70;;;;;;;3.31;77.70;99507.47;5045974;28;20278;-80
2023/01/20 05:56:32;;;;;;;23.13;14.00;;;;;;;3.30;78.10;99511.19;5045759;28;20300;-80
2023/01/20 05:58:57;;;;;;;32.58;14.65;;;;;;;3.28;77.93;99510.59;5045618;28;20288;-79
2023/01/20 06:01:22;;;;;;;26.88;13.85;;;;;;;3.26;78.33;99510.00;5046023;28;20713;-79
2023/01/20 06:03:47;;;;;;;23.70;14.73;;;;;;;3.26;78.17;99518.09;5045830;28;20033;-80
2023/01/20 06:06:14;;;;;;;27.38;14.63;;;;;;;3.19;78.66;99522.72;5046074;28;20266;-79
2023/01/20 06:08:40;;;;;;;22.40;13.23;;;;;;;3.23;78.70;99516.69;5045528;28;20032;-79
2023/01/20 06:11:05;;;;;;;30.98;15.70;;;;;;;3.18;78.99;99518.38;5045799;28;20422;-79
2023/01/20 06:13:31;;;;;;;22.75;13.25;;;;;;;3.15;78.98;99522.34;5045923;28;20098;-80
2023/01/20 06:15:56;;;;;;;26.13;15.20;;;;;;;3.19;78.81;99520.84;5045839;28;20033;-80
2023/01/20 06:18:23;;;;;;;24.58;15.13;;;;;;;3.13;78.62;99517.16;5045312;28;20254;-79
2023/01/20 06:20:48;;;;;;;31.15;16.58;;;;;;;2.98;78.78;99519.38;5045779;28;20029;-79
2023/01/20 06:23:13;;;;;;;24.20;14.88;;;;;;;2.98;78.99;99517.50;5046136;28;20516;-80
2023/01/20 06:25:40;;;;;;;33.63;19.38;;;;;;;2.97;78.99;99529.31;5045669;28;20348;-79
2023/01/20 06:28:06;;;;;;;37.40;17.40;;;;;;;2.89;78.89;99527.72;5045444;28;20045;-79
2023/01/20 06:30:31;;;;;;;27.92;14.90;;;;;;;2.87;79.53;99521.72;5045765;28;20162;-80
2023/01/20 06:32:56;;;;;;;33.10;18.17;;;;;;;2.89;79.55;99527.72;5045779;28;20506;-78
2023/01/20 06:35:23;;;;;;;29.83;15.27;;;;;;;2.95;79.01;99530.59;5045766;28;20060;-79
2023/01/20 06:37:48;;;;;;;30.90;14.82;;;;;;;3.00;78.80;99528.06;5044011;28;20045;-80
2023/01/20 06:40:14;;;;;;;34.72;17.20;;;;;;;2.88;78.55;99531.47;5045125;28;20036;-80
2023/01/20 06:42:39;;;;;;;27.23;16.48;;;;;;;2.90;78.96;99532.09;5045521;28;20102;-79
2023/01/20 06:45:05;;;;;;;26.77;14.45;;;;;;;2.95;78.50;99538.69;5044986;28;20053;-79
2023/01/20 06:47:30;;;;;;;28.13;14.55;;;;;;;2.78;79.24;99531.13;5044644;28;20064;-79
2023/01/20 06:49:56;;;;;;;23.10;14.48;;;;;;;2.85;79.33;99539.97;5045223;28;20064;-79
2023/01/20 06:52:21;;;;;;;22.35;14.77;;;;;;;2.98;79.03;99535.53;5045398;28;20025;-80
2023/01/20 06:54:46;;;;;;;26.58;13.40;;;;;;;2.98;78.49;99538.22;5045109;28;20036;-79
2023/01/20 06:57:11;;;;;;;20.73;10.82;;;;;;;3.02;78.52;99542.97;5044536;28;20377;-79
2023/01/20 06:59:37;;;;;;;25.95;13.15;;;;;;;2.89;78.50;99549.28;5045300;28;20024;-80
2023/01/20 07:02:02;;;;;;;25.00;12.05;;;;;;;2.92;79.00;99548.84;5045123;28;20025;-80
2023/01/20 07:04:27;;;;;;;25.02;13.25;;;;;;;3.01;78.58;99548.56;5045483;28;20044;-79
2023/01/20 07:06:53;;;;;;;24.57;14.77;;;;;;;3.04;78.58;99550.81;5045069;28;20404;-79
2023/01/20 07:09:18;;;;;;;25.55;13.18;;;;;;;3.02;78.32;99551.03;5044283;28;20296;-79
2023/01/20 07:11:43;;;;;;;18.70;12.30;;;;;;;2.91;77.97;99557.13;5044647;28;20632;-79
2023/01/20 07:14:09;;;;;;;21.33;12.00;;;;;;;2.76;78.46;99557.47;5044429;28;20281;-79
2023/01/20 07:16:34;;;;;;;23.15;13.15;;;;;;;2.72;79.29;99562.47;5045294;28;20033;-79
2023/01/20 07:19:00;;;;;;;17.83;12.05;;;;;;;2.89;79.31;99568.13;5044192;28;20036;-80
2023/01/20 07:21:25;;;;;;;22.90;14.55;;;;;;;2.84;79.24;99567.97;5044806;28;20118;-80
2023/01/20 07:23:50;;;;;;;23.00;12.95;;;;;;;2.83;78.94;99569.00;5044740;28;20029;-80
2023/01/20 07:26:18;;;;;;;30.48;14.05;;;;;;;2.84;79.27;99567.13;5044605;28;20029;-80
2023/01/20 07:28:44;;;;;;;22.73;13.00;;;;;;;3.03;78.97;99566.16;5044575;28;20041;-80
2023/01/20 07:31:19;;;;;;;25.08;12.93;;;;;;;3.10;78.02;99581.44;5044210;28;20040;-80
2023/01/20 07:33:45;;;;;;;24.08;13.93;;;;;;;3.08;78.23;99578.13;5043901;28;20037;-79
2023/01/20 07:36:12;;;;;;;28.60;15.23;;;;;;;3.08;78.35;99588.91;5043804;28;20024;-80
2023/01/20 07:38:38;;;;;;;25.73;14.57;;;;;;;3.21;78.84;99588.00;5043630;28;20041;-79
2023/01/20 07:41:06;;;;;;;21.25;11.77;;;;;;;3.17;78.21;99601.09;5043153;28;20063;-79
2023/01/20 07:43:32;;;;;;;23.05;15.52;;;;;;;3.24;78.37;99603.72;5043603;28;20256;-80
2023/01/20 07:45:59;;;;;;;24.02;14.70;;;;;;;3.33;78.39;99610.50;5043562;28;20099;-80
2023/01/20 07:48:24;;;;;;;24.45;13.85;;;;;;;3.42;77.84;99615.59;5042976;28;20036;-78
2023/01/20 07:51:01;;;;;;;23.70;15.00;;;;;;;3.47;77.83;99616.59;5042014;28;20040;-80
2023/01/20 07:53:37;;;;;;;36.33;17.23;;;;;;;3.41;77.28;99622.03;5043337;28;20032;-80
2023/01/20 07:56:10;;;;;;;25.08;14.00;;;;;;;3.38;77.79;99616.03;5042258;28;20032;-79
2023/01/20 07:58:36;;;;;;;27.55;16.42;;;;;;;3.41;77.68;99624.72;5043131;28;20037;-78
2023/01/20 08:01:08;;;;;;;26.15;14.90;;;;;;;3.44;77.15;99618.91;5043448;28;20506;-79
2023/01/20 08:03:34;;;;;;;21.95;12.52;;;;;;;3.42;77.75;99616.41;5043203;28;20651;-78
2023/01/20 08:06:08;;;;;;;25.80;13.75;;;;;;;3.43;76.97;99625.31;5042571;28;20044;-79
2023/01/20 08:08:34;;;;;;;30.15;15.25;;;;;;;3.39;76.96;99622.25;5042230;28;20032;-79
2023/01/20 08:11:00;;;;;;;24.40;11.68;;;;;;;3.43;77.56;99628.03;5042612;28;20077;-79
2023/01/20 08:13:29;;;;;;;22.73;14.60;;;;;;;3.45;77.24;99618.69;5042797;28;20028;-79
2023/01/20 08:15:59;;;;;;;22.02;12.00;;;;;;;3.36;76.44;99623.50;5042235;28;20160;-79
2023/01/20 08:18:24;;;;;;;24.25;12.65;;;;;;;3.37;77.35;99633.25;5042612;28;20029;-81
2023/01/20 08:20:49;;;;;;;22.60;13.05;;;;;;;3.25;77.57;99632.31;5042984;28;20107;-81
2023/01/20 08:23:15;;;;;;;20.40;12.63;;;;;;;3.20;77.51;99629.44;5043571;28;20032;-80
2023/01/20 08:25:40;;;;;;;22.90;14.33;;;;;;;3.22;77.39;99640.81;5043497;28;20120;-80
2023/01/20 08:28:05;;;;;;;24.90;14.70;;;;;;;3.10;77.69;99640.72;5042142;28;20283;-80
2023/01/20 08:30:30;;;;;;;25.88;13.27;;;;;;;3.00;77.56;99635.81;5043977;28;20265;-80
2023/01/20 08:32:55;;;;;;;23.13;11.63;;;;;;;3.02;78.31;99639.09;5043728;28;20436;-81
2023/01/20 08:35:21;;;;;;;25.20;13.43;;;;;;;3.00;78.16;99638.50;5043583;28;20305;-80
2023/01/20 08:37:46;;;;;;;29.75;16.65;;;;;;;2.99;77.53;99639.56;5041922;28;20282;-80
2023/01/20 08:40:12;;;;;;;28.58;14.50;;;;;;;3.02;78.32;99653.41;5043205;28;20040;-80
2023/01/20 08:42:38;;;;;;;25.63;13.43;;;;;;;3.12;77.37;99650.22;5043876;28;20032;-80
2023/01/20 08:45:05;;;;;;;26.30;14.43;;;;;;;3.19;76.97;99649.38;5041357;28;20940;-81
2023/01/20 08:47:33;;;;;;;24.42;14.60;;;;;;;3.22;77.24;99647.03;5042407;28;20021;-80
2023/01/20 08:49:59;;;;;;;22.85;15.48;;;;;;;3.30;76.39;99663.97;5041382;28;20533;-81
2023/01/20 08:52:24;;;;;;;24.73;14.90;;;;;;;3.07;76.80;99666.22;5043275;28;20186;-77
2023/01/20 08:54:52;;;;;;;26.57;11.87;;;;;;;3.06;76.93;99651.09;5043311;28;20461;-78
2023/01/20 08:57:18;;;;;;;23.48;13.00;;;;;;;3.03;76.62;99662.31;5042687;28;20270;-80
2023/01/20 08:59:45;;;;;;;20.88;11.75;;;;;;;2.98;76.54;99659.44;5043325;28;20048;-81
2023/01/20 09:02:10;;;;;;;24.30;13.13;;;;;;;2.94;76.72;99656.34;5042629;28;20037;-80
2023/01/20 09:04:36;;;;;;;19.92;11.00;;;;;;;2.99;76.54;99656.53;5042039;28;20635;-84
2023/01/20 09:07:02;;;;;;;25.83;12.95;;;;;;;3.04;76.70;99655.88;5043240;28;20048;-77
2023/01/20 09:09:28;;;;;;;25.98;12.20;;;;;;;2.89;76.53;99650.78;5042942;28;20118;-80
2023/01/20 09:11:53;;;;;;;23.30;13.98;;;;;;;2.89;76.37;99667.78;5043234;28;20056;-81
2023/01/20 09:14:20;;;;;;;21.05;11.57;;;;;;;2.96;76.55;99673.13;5043048;28;20033;-81
2023/01/20 09:16:46;;;;;;;18.95;12.90;;;;;;;2.88;76.08;99666.13;5042899;28;20132;-81
2023/01/20 09:19:11;;;;;;;18.25;10.82;;;;;;;2.97;75.90;99660.50;5042620;28;20055;-81
2023/01/20 09:21:37;;;;;;;25.67;12.52;;;;;;;3.01;75.81;99673.28;5041881;28;20057;-79
2023/01/20 09:24:02;;;;;;;24.50;11.80;;;;;;;2.92;76.20;99675.44;5043233;28;20492;-80
2023/01/20 09:26:37;;;;;;;21.65;10.32;;;;;;;2.86;76.32;99673.59;5043072;28;20289;-80
2023/01/20 09:29:09;;;;;;;20.50;11.80;;;;;;;2.98;75.86;99664.81;5042721;28;20077;-80
2023/01/20 09:31:36;;;;;;;21.88;9.85;;;;;;;3.09;75.57;99666.81;5043347;28;20147;-86
2023/01/20 09:34:01;;;;;;;20.45;12.45;;;;;;;3.08;76.95;99684.03;5043569;28;20025;-80
2023/01/20 09:36:30;;;;;;;25.27;12.52;;;;;;;3.12;76.20;99679.88;5043456;28;20522;-80
2023/01/20 09:45:03;;;;;;;20.85;13.15;;;;;;;3.28;74.67;99691.16;5043443;28;20122;-80
2023/01/20 09:47:33;;;;;;;19.92;11.10;;;;;;;3.13;75.29;99699.56;5041858;28;20390;-80
2023/01/20 09:53:40;;;;;;;21.85;11.82;;;;;;;2.94;76.08;99701.31;5042956;28;20043;-79
2023/01/20 09:56:15;;;;;;;23.10;12.52;;;;;;;2.96;76.06;99696.53;5042091;28;20056;-82
2023/01/20 09:58:46;;;;;;;21.17;10.00;;;;;;;3.08;75.92;99700.19;5042163;28;20048;-80
2023/01/20 10:01:16;;;;;;;21.50;11.55;;;;;;;3.09;75.92;99704.53;5042153;28;20333;-80
2023/01/20 10:03:57;;;;;;;23.38;12.57;;;;;;;3.12;75.31;99703.28;5042698;28;20110;-80
2023/01/20 10:06:40;;;;;;;23.38;11.77;;;;;;;3.12;75.08;99709.50;5042158;28;20037;-79
2023/01/20 10:09:13;;;;;;;24.17;10.43;;;;;;;3.22;74.68;99713.59;5041762;28;20477;-83
2023/01/20 10:11:42;;;;;;;21.87;13.20;;;;;;;3.24;74.61;99700.72;5042301;28;20075;-80
2023/01/20 10:14:31;;;;;;;28.52;12.82;;;;;;;3.25;75.47;99703.19;5048489;28;20060;-79
2023/01/20 10:17:06;;;;;;;19.77;11.18;;;;;;;3.35;74.50;99708.13;5045990;28;20040;-80
2023/01/20 10:19:41;;;;;;;18.40;9.15;;;;;;;3.36;74.49;99698.97;5045379;28;20033;-80
2023/01/20 10:22:17;;;;;;;15.75;9.60;;;;;;;3.29;74.01;99711.69;5045911;28;20033;-80
2023/01/20 10:25:08;;;;;;;17.05;8.30;;;;;;;3.20;72.57;99712.97;5045889;28;20045;-80
2023/01/20 10:27:38;;;;;;;15.25;7.82;;;;;;;3.21;73.87;99711.94;5045498;28;20037;-81
2023/01/20 10:30:08;;;;;;;18.92;10.23;;;;;;;3.17;73.16;99705.34;5045748;28;20399;-81
2023/01/20 10:32:36;;;;;;;12.98;7.97;;;;;;;3.22;73.62;99703.63;5045894;28;20340;-81
2023/01/20 10:35:24;;;;;;;16.63;7.15;;;;;;;3.27;73.72;99708.38;5044389;28;20103;-81
2023/01/20 10:37:51;;;;;;;17.77;7.95;;;;;;;3.49;72.73;99708.03;5045351;28;20152;-85
2023/01/20 10:40:32;;;;;;;12.15;6.93;;;;;;;3.38;72.76;99706.84;5044788;28;20127;-79
2023/01/20 10:43:03;;;;;;;14.15;8.70;;;;;;;3.46;72.57;99703.88;5044924;28;20091;-79
2023/01/20 10:45:40;;;;;;;16.67;8.63;;;;;;;3.46;72.35;99705.75;5044955;28;20072;-79
2023/01/20 10:48:26;;;;;;;15.23;6.95;;;;;;;3.44;72.78;99699.78;5043377;28;20044;-80
2023/01/20 10:51:07;;;;;;;16.40;7.65;;;;;;;3.58;72.71;99695.09;5045273;28;20044;-84
2023/01/20 10:53:49;;;;;;;10.20;6.63;;;;;;;3.71;72.37;99699.53;5046022;28;20249;-81
2023/01/20 10:56:34;;;;;;;11.73;7.15;;;;;;;3.83;71.79;99700.47;5045329;28;20506;-82
2023/01/20 10:59:11;;;;;;;13.50;6.95;;;;;;;3.71;71.39;99699.53;5043950;28;20040;-81
2023/01/20 11:01:37;;;;;;;13.77;8.10;;;;;;;3.68;71.56;99705.38;5045449;28;20485;-81
2023/01/20 11:04:02;;;;;;;18.40;7.18;;;;;;;3.48;71.90;99706.34;5045197;28;20068;-80
2023/01/20 11:06:28;;;;;;;16.88;6.82;;;;;;;3.44;71.98;99700.56;5045288;28;20037;-81
2023/01/20 11:08:54;;;;;;;13.80;6.65;;;;;;;3.54;71.51;99694.69;5043899;28;20118;-86
2023/01/20 11:11:22;;;;;;;20.75;9.32;;;;;;;3.73;72.01;99700.16;5044766;28;20040;-82
2023/01/20 11:13:50;;;;;;;12.13;7.68;;;;;;;3.83;71.95;99697.78;5044279;28;20083;-81
2023/01/20 11:16:27;;;;;;;13.10;7.53;;;;;;;3.82;70.66;99712.28;5045003;28;20043;-81
2023/01/20 11:19:01;;;;;;;15.15;7.82;;;;;;;3.88;70.57;99707.06;5044991;28;20037;-81
2023/01/20 11:21:32;;;;;;;16.60;7.60;;;;;;;3.80;70.60;99703.63;5045354;28;20041;-81
2023/01/20 11:23:58;;;;;;;14.43;6.90;;;;;;;3.81;70.52;99710.66;5044572;28;20033;-79
2023/01/20 11:26:26;;;;;;;12.98;7.13;;;;;;;3.88;71.36;99709.78;5044512;28;20326;-80
2023/01/20 11:29:22;;;;;;;16.52;7.68;;;;;;;3.91;70.95;99710.16;5044456;28;20481;-80
2023/01/20 11:31:51;;;;;;;12.15;5.38;;;;;;;3.86;71.36;99712.69;5044346;28;20060;-81
2023/01/20 11:34:24;;;;;;;13.95;7.20;;;;;;;3.97;71.06;99727.31;5044522;28;20037;-80
2023/01/20 11:37:14;;;;;;;10.65;4.95;;;;;;;3.92;69.93;99717.22;5044442;28;20036;-82
2023/01/20 11:39:48;;;;;;;13.40;5.95;;;;;;;3.90;69.64;99713.91;5042914;28;20110;-80
2023/01/20 11:42:19;;;;;;;;;;;;;;;3.88;70.25;99713.31;5044626;28;20116;-82
2023/01/20 11:44:47;;;;;;;10.27;4.63;;;;;;;3.80;70.31;99717.13;5043815;28;20388;-80